createdAt,value
2017-11-12T00:04:48.171Z,2.51
2017-11-12T00:14:24.793Z,2.70
2017-11-12T00:24:01.131Z,2.60
2017-11-12T00:33:37.133Z,2.60
2017-11-12T00:43:13.919Z,2.70
2017-11-12T00:52:49.442Z,2.90
2017-11-12T01:02:27.014Z,3.00
2017-11-12T01:12:03.592Z,3.09
2017-11-12T01:21:39.687Z,3.00
2017-11-12T01:31:16.218Z,3.09
2017-11-12T01:40:52.569Z,2.99
2017-11-12T01:50:29.050Z,2.80
2017-11-12T02:00:04.483Z,2.80
2017-11-12T02:09:41.052Z,2.70
2017-11-12T02:19:17.632Z,2.70
2017-11-12T02:28:53.808Z,2.51
2017-11-12T02:38:29.998Z,2.41
2017-11-12T02:48:05.946Z,2.41
2017-11-12T02:57:42.159Z,2.21
2017-11-12T03:07:18.606Z,2.41
2017-11-12T03:16:54.567Z,2.41
2017-11-12T03:26:31.379Z,2.51
2017-11-12T03:36:07.829Z,2.70
2017-11-12T03:45:44.504Z,2.80
2017-11-12T03:55:21.199Z,2.90
2017-11-12T04:04:57.899Z,3.09
2017-11-12T04:14:34.002Z,3.00
2017-11-12T04:24:11.292Z,2.90
2017-11-12T04:33:47.396Z,2.90
2017-11-12T04:43:23.635Z,2.80
2017-11-12T04:52:59.997Z,2.90
2017-11-12T05:02:36.146Z,2.80
2017-11-12T05:12:11.811Z,2.70
2017-11-12T05:21:49.134Z,2.60
2017-11-12T05:31:25.575Z,2.70
2017-11-12T05:41:02.226Z,2.70
2017-11-12T05:50:38.820Z,2.80
2017-11-12T06:00:14.645Z,2.80
2017-11-12T06:09:52.278Z,2.90
2017-11-12T06:19:28.416Z,2.80
2017-11-12T06:29:04.543Z,2.90
2017-11-12T06:38:40.870Z,3.00
2017-11-12T06:48:17.194Z,3.09
2017-11-12T06:57:53.453Z,3.19
2017-11-12T07:07:29.267Z,3.39
2017-11-12T07:17:06.904Z,3.48
2017-11-12T07:26:43.852Z,3.58
2017-11-12T07:36:19.061Z,3.78
2017-11-12T07:45:54.572Z,3.88
2017-11-12T07:55:31.475Z,3.97
2017-11-12T08:05:07.991Z,4.07
2017-11-12T08:14:44.130Z,4.07
2017-11-12T08:24:20.448Z,4.36
2017-11-12T08:33:57.302Z,4.56
2017-11-12T08:43:33.502Z,4.95
2017-11-12T08:53:09.491Z,4.95
2017-11-12T09:02:45.467Z,5.34
2017-11-12T09:12:21.132Z,5.73
2017-11-12T09:22:03.609Z,6.12
2017-11-12T09:31:40.031Z,6.13
2017-11-12T09:41:16.476Z,6.22
2017-11-12T09:50:52.007Z,6.32
2017-11-12T10:00:29.469Z,6.52
2017-11-12T10:10:05.142Z,6.61
2017-11-12T10:19:42.628Z,6.81
2017-11-12T10:29:19.070Z,6.71
2017-11-12T10:38:55.283Z,6.91
2017-11-12T10:48:31.275Z,6.91
2017-11-12T10:58:07.297Z,6.71
2017-11-12T11:07:43.457Z,6.71
2017-11-12T11:17:22.569Z,6.61
2017-11-12T11:26:53.182Z,6.71
2017-11-12T11:36:29.097Z,6.61
2017-11-12T11:46:05.012Z,6.61
2017-11-12T11:55:45.095Z,6.81
2017-11-12T12:05:14.930Z,7.01
2017-11-12T12:14:51.885Z,6.91
2017-11-12T12:24:27.539Z,6.81
2017-11-12T12:34:03.615Z,6.91
2017-11-12T12:43:39.565Z,6.91
2017-11-12T12:53:15.856Z,7.00
2017-11-12T13:02:52.912Z,7.01
2017-11-12T13:12:29.071Z,7.00
2017-11-12T13:22:05.238Z,6.91
2017-11-12T13:31:40.451Z,6.91
2017-11-12T13:41:17.249Z,6.71
2017-11-12T13:50:57.375Z,6.71
2017-11-12T14:00:27.191Z,6.61
2017-11-12T14:10:02.195Z,6.61
2017-11-12T14:19:38.381Z,6.52
2017-11-12T14:29:14.716Z,6.61
2017-11-12T14:38:50.766Z,6.61
2017-11-12T14:48:26.493Z,6.52
2017-11-12T14:58:02.268Z,6.52
2017-11-12T15:07:39.520Z,6.52
2017-11-12T15:17:15.512Z,6.42
2017-11-12T15:26:51.532Z,6.22
2017-11-12T15:36:27.089Z,6.22
2017-11-12T15:46:03.581Z,6.22
2017-11-12T15:55:39.299Z,6.22
2017-11-12T16:05:16.328Z,6.22
2017-11-12T16:14:52.048Z,6.22
2017-11-12T16:24:29.088Z,6.22
2017-11-12T16:34:05.382Z,6.22
2017-11-12T16:43:41.712Z,6.22
2017-11-12T16:53:18.020Z,6.03
2017-11-12T17:02:53.897Z,6.03
2017-11-12T17:12:34.470Z,5.93
2017-11-12T17:22:04.087Z,5.83
2017-11-12T17:31:41.226Z,5.83
2017-11-12T17:41:17.533Z,5.73
2017-11-12T17:50:53.534Z,5.54
2017-11-12T18:00:34.674Z,5.54
2017-11-12T18:10:04.416Z,5.44
2017-11-12T18:19:40.822Z,5.24
2017-11-12T18:29:16.014Z,5.25
2017-11-12T18:38:52.464Z,5.15
2017-11-12T18:48:29.375Z,5.15
2017-11-12T18:58:05.194Z,4.95
2017-11-12T19:07:40.870Z,4.76
2017-11-12T19:17:16.609Z,4.66
2017-11-12T19:26:52.601Z,4.66
2017-11-12T19:36:28.130Z,4.36
2017-11-12T19:46:03.779Z,4.27
2017-11-12T19:55:39.016Z,4.27
2017-11-12T20:05:15.540Z,4.17
2017-11-12T20:14:51.438Z,4.27
2017-11-12T20:24:27.436Z,4.27
2017-11-12T20:34:03.910Z,4.27
2017-11-12T20:43:40.362Z,4.37
2017-11-12T20:53:16.792Z,4.27
2017-11-12T21:02:53.315Z,4.46
2017-11-12T21:12:30.037Z,4.66
2017-11-12T21:22:06.533Z,4.76
2017-11-12T21:31:43.143Z,4.95
2017-11-12T21:41:19.152Z,4.95
2017-11-12T21:50:56.424Z,5.64
2017-11-12T22:00:37.655Z,6.03
2017-11-12T22:10:08.296Z,6.71
2017-11-12T22:19:45.240Z,6.91
2017-11-12T22:29:22.956Z,7.30
2017-11-12T22:38:59.441Z,7.40
2017-11-12T22:48:35.604Z,7.49
2017-11-12T22:58:12.997Z,7.59
2017-11-12T23:07:49.416Z,7.49
2017-11-12T23:17:25.701Z,7.89
2017-11-12T23:27:02.294Z,7.69
2017-11-12T23:36:38.095Z,7.30
2017-11-12T23:46:14.243Z,7.40
2017-11-12T23:55:50.468Z,7.40
